Catharine, Kansas
Current Conditions -  °F | °C
As of 5:15 AM on Monday 22 Dec 2014 (Local Time) from KHYS Reporting Station
Clear Clear  
Wind Chill: 33°   Ceiling: Unl
Heat Index: 41°   Visibility: 10mi
Dew Point: 30°   Wind: 14mph
Humidity: 65%   Direction: 320°NW
Pressure: 29.53"   Gusts: NA
Location:  38.93°N, 99.22°W
Report Text: KHYS 221115Z AUTO 32012KT 10SM CLR 05/M01 A2953 RMK AO1
Loading
Personal Weather Stations






























Interactive Weather Map New forecast layout! Learn more

10-Day Weather Forecast

Advertisements
Track Severe Weather on mobile